sensor_id;sensor_type;location;lat;lon;timestamp;temperature;humidity
27439;DHT22;14887;51.252;7.470;2022-12-18T00:01:36;-4.40;1.00
27439;DHT22;14887;51.252;7.470;2022-12-18T00:04:04;-4.40;1.00
27439;DHT22;14887;51.252;7.470;2022-12-18T00:06:30;-4.50;1.00
27439;DHT22;14887;51.252;7.470;2022-12-18T00:08:57;-4.60;1.00
27439;DHT22;14887;51.252;7.470;2022-12-18T00:11:25;-4.60;1.00
27439;DHT22;14887;51.252;7.470;2022-12-18T00:13:51;-4.60;1.00
27439;DHT22;14887;51.252;7.470;2022-12-18T00:16:19;-4.60;1.00
27439;DHT22;14887;51.252;7.470;2022-12-18T00:18:47;-4.60;1.00
27439;DHT22;14887;51.252;7.470;2022-12-18T00:21:13;-4.60;1.00
27439;DHT22;14887;51.252;7.470;2022-12-18T00:23:40;-4.70;1.00
27439;DHT22;14887;51.252;7.470;2022-12-18T00:26:09;-4.70;1.00
27439;DHT22;14887;51.252;7.470;2022-12-18T00:28:35;-4.70;1.00
27439;DHT22;14887;51.252;7.470;2022-12-18T00:31:06;-4.70;1.00
27439;DHT22;14887;51.252;7.470;2022-12-18T00:33:33;-4.80;1.00
27439;DHT22;14887;51.252;7.470;2022-12-18T00:36:02;-4.60;1.00
27439;DHT22;14887;51.252;7.470;2022-12-18T00:38:28;-4.70;1.00
27439;DHT22;14887;51.252;7.470;2022-12-18T00:40:54;-4.70;1.00
27439;DHT22;14887;51.252;7.470;2022-12-18T00:43:19;-4.70;1.00
27439;DHT22;14887;51.252;7.470;2022-12-18T00:45:45;-4.70;1.00
27439;DHT22;14887;51.252;7.470;2022-12-18T00:48:11;-4.70;1.00
27439;DHT22;14887;51.252;7.470;2022-12-18T00:50:36;-4.70;1.00
27439;DHT22;14887;51.252;7.470;2022-12-18T00:53:02;-4.70;1.00
27439;DHT22;14887;51.252;7.470;2022-12-18T00:55:27;-4.70;1.00
27439;DHT22;14887;51.252;7.470;2022-12-18T00:57:53;-4.80;1.00
27439;DHT22;14887;51.252;7.470;2022-12-18T01:00:18;-4.70;1.00
27439;DHT22;14887;51.252;7.470;2022-12-18T01:02:44;-4.60;1.00
27439;DHT22;14887;51.252;7.470;2022-12-18T01:05:11;-4.50;1.00
27439;DHT22;14887;51.252;7.470;2022-12-18T01:07:37;-4.60;1.00
27439;DHT22;14887;51.252;7.470;2022-12-18T01:10:04;-4.70;1.00
27439;DHT22;14887;51.252;7.470;2022-12-18T01:12:30;-4.70;1.00
27439;DHT22;14887;51.252;7.470;2022-12-18T01:14:57;-4.70;17.60
27439;DHT22;14887;51.252;7.470;2022-12-18T01:17:22;-4.70;28.80
27439;DHT22;14887;51.252;7.470;2022-12-18T01:19:48;-4.60;27.40
27439;DHT22;14887;51.252;7.470;2022-12-18T01:22:13;-4.60;11.00
27439;DHT22;14887;51.252;7.470;2022-12-18T01:24:39;-4.60;24.00
27439;DHT22;14887;51.252;7.470;2022-12-18T01:27:04;-4.70;15.80
27439;DHT22;14887;51.252;7.470;2022-12-18T01:29:30;-4.70;46.80
27439;DHT22;14887;51.252;7.470;2022-12-18T01:31:56;-4.80;45.50
27439;DHT22;14887;51.252;7.470;2022-12-18T01:34:22;-4.70;52.40
27439;DHT22;14887;51.252;7.470;2022-12-18T01:36:48;-4.70;53.80
27439;DHT22;14887;51.252;7.470;2022-12-18T01:39:15;-4.80;53.90
27439;DHT22;14887;51.252;7.470;2022-12-18T01:41:41;-4.70;63.40
27439;DHT22;14887;51.252;7.470;2022-12-18T01:45:20;-4.70;70.20
27439;DHT22;14887;51.252;7.470;2022-12-18T01:47:43;-4.70;70.70
27439;DHT22;14887;51.252;7.470;2022-12-18T01:50:17;-4.70;81.70
27439;DHT22;14887;51.252;7.470;2022-12-18T01:52:46;-4.70;80.10
27439;DHT22;14887;51.252;7.470;2022-12-18T01:55:16;-4.60;57.00
27439;DHT22;14887;51.252;7.470;2022-12-18T01:57:42;-4.70;55.80
27439;DHT22;14887;51.252;7.470;2022-12-18T02:00:17;-4.70;59.40
27439;DHT22;14887;51.252;7.470;2022-12-18T02:02:44;-4.70;67.30
27439;DHT22;14887;51.252;7.470;2022-12-18T02:05:12;-4.80;72.40
27439;DHT22;14887;51.252;7.470;2022-12-18T02:08:00;-4.80;74.00
27439;DHT22;14887;51.252;7.470;2022-12-18T02:16:39;-4.70;75.30
27439;DHT22;14887;51.252;7.470;2022-12-18T02:19:36;-4.70;76.90
27439;DHT22;14887;51.252;7.470;2022-12-18T02:22:44;-4.70;74.20
27439;DHT22;14887;51.252;7.470;2022-12-18T02:28:01;-4.70;54.30
27439;DHT22;14887;51.252;7.470;2022-12-18T02:30:31;-4.60;63.30
27439;DHT22;14887;51.252;7.470;2022-12-18T02:33:01;-4.60;67.80
27439;DHT22;14887;51.252;7.470;2022-12-18T02:35:30;-4.60;50.90
27439;DHT22;14887;51.252;7.470;2022-12-18T02:37:57;-4.70;48.00
27439;DHT22;14887;51.252;7.470;2022-12-18T02:40:25;-4.60;50.80
27439;DHT22;14887;51.252;7.470;2022-12-18T02:42:51;-4.70;39.90
27439;DHT22;14887;51.252;7.470;2022-12-18T02:45:17;-4.70;63.90
27439;DHT22;14887;51.252;7.470;2022-12-18T02:47:45;-4.70;71.90
27439;DHT22;14887;51.252;7.470;2022-12-18T02:50:22;-4.70;68.60
27439;DHT22;14887;51.252;7.470;2022-12-18T02:53:01;-4.60;55.80
27439;DHT22;14887;51.252;7.470;2022-12-18T02:55:49;-4.60;40.70
27439;DHT22;14887;51.252;7.470;2022-12-18T03:01:05;-4.70;47.30
27439;DHT22;14887;51.252;7.470;2022-12-18T03:03:42;-4.70;44.10
27439;DHT22;14887;51.252;7.470;2022-12-18T03:06:14;-4.50;28.90
27439;DHT22;14887;51.252;7.470;2022-12-18T03:08:46;-4.60;28.80
27439;DHT22;14887;51.252;7.470;2022-12-18T03:11:14;-4.60;24.80
27439;DHT22;14887;51.252;7.470;2022-12-18T03:13:52;-4.50;9.70
27439;DHT22;14887;51.252;7.470;2022-12-18T03:16:25;-4.50;1.00
27439;DHT22;14887;51.252;7.470;2022-12-18T03:18:58;-4.60;3.80
27439;DHT22;14887;51.252;7.470;2022-12-18T03:21:39;-4.50;1.00
27439;DHT22;14887;51.252;7.470;2022-12-18T03:24:07;-4.50;1.00
27439;DHT22;14887;51.252;7.470;2022-12-18T03:26:35;-4.60;1.00
27439;DHT22;14887;51.252;7.470;2022-12-18T03:29:10;-4.60;1.00
27439;DHT22;14887;51.252;7.470;2022-12-18T03:31:40;-4.70;5.00
27439;DHT22;14887;51.252;7.470;2022-12-18T03:34:12;-4.60;1.00
27439;DHT22;14887;51.252;7.470;2022-12-18T03:36:38;-4.60;1.00
27439;DHT22;14887;51.252;7.470;2022-12-18T03:39:04;-4.60;1.00
27439;DHT22;14887;51.252;7.470;2022-12-18T03:41:33;-4.60;1.00
27439;DHT22;14887;51.252;7.470;2022-12-18T03:44:10;-4.80;1.00
27439;DHT22;14887;51.252;7.470;2022-12-18T03:49:38;-4.80;11.60
27439;DHT22;14887;51.252;7.470;2022-12-18T03:52:10;-4.80;14.80
27439;DHT22;14887;51.252;7.470;2022-12-18T03:54:38;-4.80;2.00
27439;DHT22;14887;51.252;7.470;2022-12-18T03:57:21;-4.90;8.40
27439;DHT22;14887;51.252;7.470;2022-12-18T03:59:50;-4.90;19.20
27439;DHT22;14887;51.252;7.470;2022-12-18T04:02:18;-5.00;23.00
27439;DHT22;14887;51.252;7.470;2022-12-18T04:04:44;-5.00;16.50
27439;DHT22;14887;51.252;7.470;2022-12-18T04:07:12;-4.90;23.40
27439;DHT22;14887;51.252;7.470;2022-12-18T04:09:39;-5.00;18.80
27439;DHT22;14887;51.252;7.470;2022-12-18T04:12:05;-4.90;24.30
27439;DHT22;14887;51.252;7.470;2022-12-18T04:14:31;-5.00;22.80
27439;DHT22;14887;51.252;7.470;2022-12-18T04:17:01;-5.00;27.50
27439;DHT22;14887;51.252;7.470;2022-12-18T04:19:26;-5.00;31.40
27439;DHT22;14887;51.252;7.470;2022-12-18T04:21:52;-4.90;32.00
27439;DHT22;14887;51.252;7.470;2022-12-18T04:24:17;-4.90;26.40
27439;DHT22;14887;51.252;7.470;2022-12-18T04:26:43;-4.90;21.60
27439;DHT22;14887;51.252;7.470;2022-12-18T04:29:08;-4.90;13.50
27439;DHT22;14887;51.252;7.470;2022-12-18T04:31:34;-4.90;11.30
27439;DHT22;14887;51.252;7.470;2022-12-18T04:33:59;-5.00;10.20
27439;DHT22;14887;51.252;7.470;2022-12-18T04:36:25;-5.00;21.50
27439;DHT22;14887;51.252;7.470;2022-12-18T04:38:50;-5.10;23.20
27439;DHT22;14887;51.252;7.470;2022-12-18T04:41:16;-5.10;28.10
27439;DHT22;14887;51.252;7.470;2022-12-18T04:43:41;-5.20;38.70
27439;DHT22;14887;51.252;7.470;2022-12-18T04:46:08;-5.10;31.10
27439;DHT22;14887;51.252;7.470;2022-12-18T04:48:34;-5.20;41.80
27439;DHT22;14887;51.252;7.470;2022-12-18T04:50:59;-5.20;36.80
27439;DHT22;14887;51.252;7.470;2022-12-18T04:53:25;-5.10;41.00
27439;DHT22;14887;51.252;7.470;2022-12-18T04:55:51;-5.00;29.20
27439;DHT22;14887;51.252;7.470;2022-12-18T04:58:26;-5.00;7.60
27439;DHT22;14887;51.252;7.470;2022-12-18T05:00:52;-4.90;1.00
27439;DHT22;14887;51.252;7.470;2022-12-18T05:03:17;-4.90;1.00
27439;DHT22;14887;51.252;7.470;2022-12-18T05:05:43;-4.90;1.00
27439;DHT22;14887;51.252;7.470;2022-12-18T05:08:08;-4.90;1.00
27439;DHT22;14887;51.252;7.470;2022-12-18T05:10:34;-5.00;1.00
27439;DHT22;14887;51.252;7.470;2022-12-18T05:13:00;-5.00;1.50
27439;DHT22;14887;51.252;7.470;2022-12-18T05:15:30;-4.90;1.00
27439;DHT22;14887;51.252;7.470;2022-12-18T05:17:57;-4.90;1.00
27439;DHT22;14887;51.252;7.470;2022-12-18T05:20:23;-4.80;1.00
27439;DHT22;14887;51.252;7.470;2022-12-18T05:22:49;-4.80;1.00
27439;DHT22;14887;51.252;7.470;2022-12-18T05:25:15;-4.90;1.00
27439;DHT22;14887;51.252;7.470;2022-12-18T05:27:41;-4.80;1.00
27439;DHT22;14887;51.252;7.470;2022-12-18T05:30:07;-4.80;1.00
27439;DHT22;14887;51.252;7.470;2022-12-18T05:32:33;-4.80;1.00
27439;DHT22;14887;51.252;7.470;2022-12-18T05:34:58;-4.80;1.00
27439;DHT22;14887;51.252;7.470;2022-12-18T05:37:24;-4.80;1.00
27439;DHT22;14887;51.252;7.470;2022-12-18T05:39:49;-4.80;1.00
27439;DHT22;14887;51.252;7.470;2022-12-18T05:42:15;-4.80;1.00
27439;DHT22;14887;51.252;7.470;2022-12-18T05:44:40;-4.80;1.00
27439;DHT22;14887;51.252;7.470;2022-12-18T05:47:06;-4.90;1.00
27439;DHT22;14887;51.252;7.470;2022-12-18T05:49:32;-5.00;1.00
27439;DHT22;14887;51.252;7.470;2022-12-18T05:51:57;-5.00;1.00
27439;DHT22;14887;51.252;7.470;2022-12-18T05:54:23;-4.90;1.00
27439;DHT22;14887;51.252;7.470;2022-12-18T05:56:48;-4.90;1.00
27439;DHT22;14887;51.252;7.470;2022-12-18T05:59:14;-4.90;1.00
27439;DHT22;14887;51.252;7.470;2022-12-18T06:01:39;-5.00;1.00
27439;DHT22;14887;51.252;7.470;2022-12-18T06:04:05;-5.00;1.00
27439;DHT22;14887;51.252;7.470;2022-12-18T06:06:30;-5.00;1.00
27439;DHT22;14887;51.252;7.470;2022-12-18T06:08:56;-5.00;1.00
27439;DHT22;14887;51.252;7.470;2022-12-18T06:11:24;-4.90;1.00
27439;DHT22;14887;51.252;7.470;2022-12-18T06:13:55;-4.80;1.00
27439;DHT22;14887;51.252;7.470;2022-12-18T06:16:20;-4.80;1.00
27439;DHT22;14887;51.252;7.470;2022-12-18T06:18:46;-4.70;1.00
27439;DHT22;14887;51.252;7.470;2022-12-18T06:21:11;-4.70;1.00
27439;DHT22;14887;51.252;7.470;2022-12-18T06:23:37;-4.70;1.00
27439;DHT22;14887;51.252;7.470;2022-12-18T06:26:07;-4.60;1.00
27439;DHT22;14887;51.252;7.470;2022-12-18T06:28:33;-4.70;1.00
27439;DHT22;14887;51.252;7.470;2022-12-18T06:30:59;-4.70;1.00
27439;DHT22;14887;51.252;7.470;2022-12-18T06:33:26;-4.70;1.00
27439;DHT22;14887;51.252;7.470;2022-12-18T06:35:53;-4.60;1.00
27439;DHT22;14887;51.252;7.470;2022-12-18T06:38:19;-4.70;1.00
27439;DHT22;14887;51.252;7.470;2022-12-18T06:40:44;-4.60;1.00
27439;DHT22;14887;51.252;7.470;2022-12-18T06:43:10;-4.70;1.00
27439;DHT22;14887;51.252;7.470;2022-12-18T06:45:35;-4.60;1.00
27439;DHT22;14887;51.252;7.470;2022-12-18T06:48:01;-4.70;1.00
27439;DHT22;14887;51.252;7.470;2022-12-18T06:50:26;-4.70;1.00
27439;DHT22;14887;51.252;7.470;2022-12-18T06:52:52;-4.70;1.00
27439;DHT22;14887;51.252;7.470;2022-12-18T06:55:18;-4.60;1.00
27439;DHT22;14887;51.252;7.470;2022-12-18T06:57:43;-4.60;1.00
27439;DHT22;14887;51.252;7.470;2022-12-18T07:00:09;-4.60;1.00
27439;DHT22;14887;51.252;7.470;2022-12-18T07:02:35;-4.60;1.00
27439;DHT22;14887;51.252;7.470;2022-12-18T07:05:01;-4.60;1.00
27439;DHT22;14887;51.252;7.470;2022-12-18T07:07:27;-4.60;1.00
27439;DHT22;14887;51.252;7.470;2022-12-18T07:09:53;-4.50;1.00
27439;DHT22;14887;51.252;7.470;2022-12-18T07:12:18;-4.50;1.00
27439;DHT22;14887;51.252;7.470;2022-12-18T07:14:44;-4.40;1.00
27439;DHT22;14887;51.252;7.470;2022-12-18T07:17:10;-4.40;1.00
27439;DHT22;14887;51.252;7.470;2022-12-18T07:19:35;-4.40;1.00
27439;DHT22;14887;51.252;7.470;2022-12-18T07:22:01;-4.40;1.00
27439;DHT22;14887;51.252;7.470;2022-12-18T07:24:27;-4.40;1.00
27439;DHT22;14887;51.252;7.470;2022-12-18T07:26:53;-4.40;1.00
27439;DHT22;14887;51.252;7.470;2022-12-18T07:29:19;-4.30;1.00
27439;DHT22;14887;51.252;7.470;2022-12-18T07:31:44;-4.30;1.00
27439;DHT22;14887;51.252;7.470;2022-12-18T07:34:14;-4.30;1.00
27439;DHT22;14887;51.252;7.470;2022-12-18T07:36:40;-4.30;1.00
27439;DHT22;14887;51.252;7.470;2022-12-18T07:39:06;-4.20;1.00
27439;DHT22;14887;51.252;7.470;2022-12-18T07:41:32;-4.10;1.00
27439;DHT22;14887;51.252;7.470;2022-12-18T07:43:57;-4.10;99.90
27439;DHT22;14887;51.252;7.470;2022-12-18T07:46:23;-4.10;99.90
27439;DHT22;14887;51.252;7.470;2022-12-18T07:48:48;-4.00;99.90
27439;DHT22;14887;51.252;7.470;2022-12-18T07:51:14;-3.90;99.90
27439;DHT22;14887;51.252;7.470;2022-12-18T07:53:40;-3.90;99.90
27439;DHT22;14887;51.252;7.470;2022-12-18T07:56:08;-3.90;99.90
27439;DHT22;14887;51.252;7.470;2022-12-18T07:58:34;-3.80;99.90
27439;DHT22;14887;51.252;7.470;2022-12-18T08:01:10;-3.80;99.90
27439;DHT22;14887;51.252;7.470;2022-12-18T08:03:37;-3.80;99.90
27439;DHT22;14887;51.252;7.470;2022-12-18T08:06:05;-3.70;99.90
27439;DHT22;14887;51.252;7.470;2022-12-18T08:08:32;-3.70;99.90
27439;DHT22;14887;51.252;7.470;2022-12-18T08:10:58;-3.60;99.90
27439;DHT22;14887;51.252;7.470;2022-12-18T08:13:24;-3.70;99.90
27439;DHT22;14887;51.252;7.470;2022-12-18T08:16:06;-3.60;99.90
27439;DHT22;14887;51.252;7.470;2022-12-18T08:18:33;-3.60;99.90
27439;DHT22;14887;51.252;7.470;2022-12-18T08:21:08;-3.50;99.90
27439;DHT22;14887;51.252;7.470;2022-12-18T08:23:34;-3.50;99.90
27439;DHT22;14887;51.252;7.470;2022-12-18T08:26:00;-3.40;99.90
27439;DHT22;14887;51.252;7.470;2022-12-18T08:28:25;-3.40;99.90
27439;DHT22;14887;51.252;7.470;2022-12-18T08:30:51;-3.40;99.90
27439;DHT22;14887;51.252;7.470;2022-12-18T08:33:17;-3.40;99.90
27439;DHT22;14887;51.252;7.470;2022-12-18T08:35:42;-3.30;58.60
27439;DHT22;14887;51.252;7.470;2022-12-18T08:38:08;-3.30;20.60
27439;DHT22;14887;51.252;7.470;2022-12-18T08:40:33;-3.30;99.90
27439;DHT22;14887;51.252;7.470;2022-12-18T08:42:59;-3.30;99.90
27439;DHT22;14887;51.252;7.470;2022-12-18T08:45:43;-3.20;1.00
27439;DHT22;14887;51.252;7.470;2022-12-18T08:48:09;-3.10;19.70
27439;DHT22;14887;51.252;7.470;2022-12-18T08:50:35;-3.00;1.00
27439;DHT22;14887;51.252;7.470;2022-12-18T08:53:00;-2.90;1.00
27439;DHT22;14887;51.252;7.470;2022-12-18T08:55:27;-2.90;1.00
27439;DHT22;14887;51.252;7.470;2022-12-18T08:57:52;-2.80;1.00
27439;DHT22;14887;51.252;7.470;2022-12-18T09:00:18;-2.80;1.00
27439;DHT22;14887;51.252;7.470;2022-12-18T09:02:43;-2.70;99.90
27439;DHT22;14887;51.252;7.470;2022-12-18T09:05:09;-2.60;1.00
27439;DHT22;14887;51.252;7.470;2022-12-18T09:07:35;-2.40;74.40
27439;DHT22;14887;51.252;7.470;2022-12-18T09:10:01;-2.20;1.00
27439;DHT22;14887;51.252;7.470;2022-12-18T09:12:26;-2.10;30.10
27439;DHT22;14887;51.252;7.470;2022-12-18T09:14:52;-2.00;1.00
27439;DHT22;14887;51.252;7.470;2022-12-18T09:17:17;-1.90;99.90
27439;DHT22;14887;51.252;7.470;2022-12-18T09:19:43;-1.80;99.90
27439;DHT22;14887;51.252;7.470;2022-12-18T09:22:09;-1.70;99.90
27439;DHT22;14887;51.252;7.470;2022-12-18T09:24:35;-1.70;99.90
27439;DHT22;14887;51.252;7.470;2022-12-18T09:27:00;-1.70;99.90
27439;DHT22;14887;51.252;7.470;2022-12-18T09:29:26;-1.80;1.00
27439;DHT22;14887;51.252;7.470;2022-12-18T09:31:51;-1.80;1.00
27439;DHT22;14887;51.252;7.470;2022-12-18T09:34:17;-1.90;99.90
27439;DHT22;14887;51.252;7.470;2022-12-18T09:36:42;-1.90;1.00
27439;DHT22;14887;51.252;7.470;2022-12-18T09:39:08;-1.90;1.00
27439;DHT22;14887;51.252;7.470;2022-12-18T09:41:40;-1.80;99.90
27439;DHT22;14887;51.252;7.470;2022-12-18T09:46:54;-1.70;99.90
27439;DHT22;14887;51.252;7.470;2022-12-18T09:49:25;-1.70;99.90
27439;DHT22;14887;51.252;7.470;2022-12-18T09:51:59;-1.60;99.90
27439;DHT22;14887;51.252;7.470;2022-12-18T09:54:40;-1.50;99.90
27439;DHT22;14887;51.252;7.470;2022-12-18T09:57:14;-1.50;1.00
27439;DHT22;14887;51.252;7.470;2022-12-18T09:59:41;-1.40;21.40
27439;DHT22;14887;51.252;7.470;2022-12-18T10:02:20;-1.30;1.00
27439;DHT22;14887;51.252;7.470;2022-12-18T10:05:05;-1.30;1.00
27439;DHT22;14887;51.252;7.470;2022-12-18T10:08:33;-1.20;1.00
27439;DHT22;14887;51.252;7.470;2022-12-18T10:10:35;-1.10;1.00
27439;DHT22;14887;51.252;7.470;2022-12-18T10:13:15;-1.10;99.90
27439;DHT22;14887;51.252;7.470;2022-12-18T10:16:04;-1.10;1.00
27439;DHT22;14887;51.252;7.470;2022-12-18T10:19:00;-1.00;99.90
27439;DHT22;14887;51.252;7.470;2022-12-18T10:21:36;-0.90;99.90
27439;DHT22;14887;51.252;7.470;2022-12-18T10:24:57;-0.90;99.90
27439;DHT22;14887;51.252;7.470;2022-12-18T10:27:16;-0.80;99.90
27439;DHT22;14887;51.252;7.470;2022-12-18T10:29:43;-0.70;99.90
27439;DHT22;14887;51.252;7.470;2022-12-18T10:32:29;-0.70;99.90
27439;DHT22;14887;51.252;7.470;2022-12-18T10:34:57;-0.70;99.90
27439;DHT22;14887;51.252;7.470;2022-12-18T10:37:25;-0.70;99.90
27439;DHT22;14887;51.252;7.470;2022-12-18T10:40:12;-0.70;99.90
27439;DHT22;14887;51.252;7.470;2022-12-18T10:42:39;-0.70;99.90
27439;DHT22;14887;51.252;7.470;2022-12-18T10:45:15;-0.60;99.90
27439;DHT22;14887;51.252;7.470;2022-12-18T10:47:46;-0.50;99.90
27439;DHT22;14887;51.252;7.470;2022-12-18T10:50:25;-0.50;75.50
27439;DHT22;14887;51.252;7.470;2022-12-18T10:52:59;-0.40;99.90
27439;DHT22;14887;51.252;7.470;2022-12-18T10:55:37;-0.40;69.70
27439;DHT22;14887;51.252;7.470;2022-12-18T10:58:23;-0.30;50.40
27439;DHT22;14887;51.252;7.470;2022-12-18T11:01:10;-0.20;11.00
27439;DHT22;14887;51.252;7.470;2022-12-18T11:03:45;-0.20;1.00
27439;DHT22;14887;51.252;7.470;2022-12-18T11:06:19;-0.10;1.00
27439;DHT22;14887;51.252;7.470;2022-12-18T11:11:24;0.00;1.00
27439;DHT22;14887;51.252;7.470;2022-12-18T11:14:15;0.00;1.00
27439;DHT22;14887;51.252;7.470;2022-12-18T11:16:46;0.00;1.00
27439;DHT22;14887;51.252;7.470;2022-12-18T11:19:17;0.10;1.00
27439;DHT22;14887;51.252;7.470;2022-12-18T11:21:44;0.10;1.00
27439;DHT22;14887;51.252;7.470;2022-12-18T11:24:27;0.10;1.00
27439;DHT22;14887;51.252;7.470;2022-12-18T11:26:54;0.10;1.00
27439;DHT22;14887;51.252;7.470;2022-12-18T11:29:27;0.10;1.00
27439;DHT22;14887;51.252;7.470;2022-12-18T11:34:48;0.20;1.00
27439;DHT22;14887;51.252;7.470;2022-12-18T11:37:15;0.20;1.00
27439;DHT22;14887;51.252;7.470;2022-12-18T11:40:06;0.20;1.00
27439;DHT22;14887;51.252;7.470;2022-12-18T11:42:45;0.30;1.00
27439;DHT22;14887;51.252;7.470;2022-12-18T11:50:24;0.40;1.00
27439;DHT22;14887;51.252;7.470;2022-12-18T11:52:50;0.40;1.00
27439;DHT22;14887;51.252;7.470;2022-12-18T11:58:08;0.60;1.00
27439;DHT22;14887;51.252;7.470;2022-12-18T12:01:44;0.60;1.00
27439;DHT22;14887;51.252;7.470;2022-12-18T12:03:56;0.60;1.00
27439;DHT22;14887;51.252;7.470;2022-12-18T12:06:33;0.60;1.00
27439;DHT22;14887;51.252;7.470;2022-12-18T12:14:54;0.60;1.00
27439;DHT22;14887;51.252;7.470;2022-12-18T12:20:39;0.60;1.00
27439;DHT22;14887;51.252;7.470;2022-12-18T12:23:28;0.70;1.00
27439;DHT22;14887;51.252;7.470;2022-12-18T12:26:06;0.70;1.00
27439;DHT22;14887;51.252;7.470;2022-12-18T12:28:53;0.70;1.00
27439;DHT22;14887;51.252;7.470;2022-12-18T12:34:23;0.70;1.00
27439;DHT22;14887;51.252;7.470;2022-12-18T12:37:07;0.60;1.00
27439;DHT22;14887;51.252;7.470;2022-12-18T12:39:39;0.60;1.00
27439;DHT22;14887;51.252;7.470;2022-12-18T12:42:18;0.50;1.00
27439;DHT22;14887;51.252;7.470;2022-12-18T12:45:05;0.50;1.00
27439;DHT22;14887;51.252;7.470;2022-12-18T12:47:40;0.40;1.00
27439;DHT22;14887;51.252;7.470;2022-12-18T12:50:13;0.30;1.00
27439;DHT22;14887;51.252;7.470;2022-12-18T12:52:45;0.30;1.00
27439;DHT22;14887;51.252;7.470;2022-12-18T12:55:20;0.30;1.00
27439;DHT22;14887;51.252;7.470;2022-12-18T13:01:23;0.20;1.00
27439;DHT22;14887;51.252;7.470;2022-12-18T13:04:18;0.20;1.00
27439;DHT22;14887;51.252;7.470;2022-12-18T13:06:55;0.10;1.00
27439;DHT22;14887;51.252;7.470;2022-12-18T13:09:23;0.20;1.00
27439;DHT22;14887;51.252;7.470;2022-12-18T13:11:49;0.10;1.00
27439;DHT22;14887;51.252;7.470;2022-12-18T13:14:39;0.00;1.00
27439;DHT22;14887;51.252;7.470;2022-12-18T13:17:24;0.00;1.00
27439;DHT22;14887;51.252;7.470;2022-12-18T13:20:04;0.00;1.00
27439;DHT22;14887;51.252;7.470;2022-12-18T13:22:37;-0.10;1.00
27439;DHT22;14887;51.252;7.470;2022-12-18T13:25:33;-0.10;1.00
27439;DHT22;14887;51.252;7.470;2022-12-18T13:28:08;-0.20;1.00
27439;DHT22;14887;51.252;7.470;2022-12-18T13:38:33;-0.50;1.00
27439;DHT22;14887;51.252;7.470;2022-12-18T13:43:55;-0.60;1.00
27439;DHT22;14887;51.252;7.470;2022-12-18T13:46:43;-0.60;17.80
27439;DHT22;14887;51.252;7.470;2022-12-18T13:51:46;-0.60;99.90
27439;DHT22;14887;51.252;7.470;2022-12-18T13:54:17;-0.60;99.90
27439;DHT22;14887;51.252;7.470;2022-12-18T13:56:46;-0.60;99.90
27439;DHT22;14887;51.252;7.470;2022-12-18T13:59:48;-0.70;99.90
27439;DHT22;14887;51.252;7.470;2022-12-18T14:02:27;-0.80;99.90
27439;DHT22;14887;51.252;7.470;2022-12-18T14:04:53;-0.90;1.00
27439;DHT22;14887;51.252;7.470;2022-12-18T14:07:23;-1.00;1.00
27439;DHT22;14887;51.252;7.470;2022-12-18T14:10:00;-1.00;99.90
27439;DHT22;14887;51.252;7.470;2022-12-18T14:12:28;-1.00;1.00
27439;DHT22;14887;51.252;7.470;2022-12-18T14:18:01;-1.10;1.00
27439;DHT22;14887;51.252;7.470;2022-12-18T14:20:30;-1.20;1.00
27439;DHT22;14887;51.252;7.470;2022-12-18T14:22:57;-1.30;14.10
27439;DHT22;14887;51.252;7.470;2022-12-18T14:25:25;-1.40;52.90
27439;DHT22;14887;51.252;7.470;2022-12-18T14:28:08;-1.40;1.00
27439;DHT22;14887;51.252;7.470;2022-12-18T14:30:39;-1.50;1.00
27439;DHT22;14887;51.252;7.470;2022-12-18T14:35:35;-1.70;10.30
27439;DHT22;14887;51.252;7.470;2022-12-18T14:38:32;-1.70;80.20
27439;DHT22;14887;51.252;7.470;2022-12-18T14:41:10;-1.70;99.90
27439;DHT22;14887;51.252;7.470;2022-12-18T14:43:38;-1.70;99.90
27439;DHT22;14887;51.252;7.470;2022-12-18T14:46:27;-1.80;1.00
27439;DHT22;14887;51.252;7.470;2022-12-18T14:48:54;-1.90;1.00
27439;DHT22;14887;51.252;7.470;2022-12-18T14:51:28;-1.90;99.90
27439;DHT22;14887;51.252;7.470;2022-12-18T14:54:14;-1.90;99.90
27439;DHT22;14887;51.252;7.470;2022-12-18T14:56:51;-1.90;99.90
27439;DHT22;14887;51.252;7.470;2022-12-18T14:59:23;-1.90;72.90
27439;DHT22;14887;51.252;7.470;2022-12-18T15:02:18;-2.00;99.90
27439;DHT22;14887;51.252;7.470;2022-12-18T15:04:44;-1.90;1.00
27439;DHT22;14887;51.252;7.470;2022-12-18T15:09:40;-2.00;1.00
27439;DHT22;14887;51.252;7.470;2022-12-18T15:12:33;-2.10;1.00
27439;DHT22;14887;51.252;7.470;2022-12-18T15:14:58;-2.10;99.90
27439;DHT22;14887;51.252;7.470;2022-12-18T15:17:24;-2.00;1.00
27439;DHT22;14887;51.252;7.470;2022-12-18T15:19:52;-2.00;1.00
27439;DHT22;14887;51.252;7.470;2022-12-18T15:22:28;-2.00;1.00
27439;DHT22;14887;51.252;7.470;2022-12-18T15:24:56;-2.10;1.00
27439;DHT22;14887;51.252;7.470;2022-12-18T15:27:30;-2.10;1.00
27439;DHT22;14887;51.252;7.470;2022-12-18T15:32:33;-2.00;1.00
27439;DHT22;14887;51.252;7.470;2022-12-18T15:37:29;-2.00;99.90
27439;DHT22;14887;51.252;7.470;2022-12-18T15:39:54;-2.00;1.00
27439;DHT22;14887;51.252;7.470;2022-12-18T15:42:20;-2.00;1.00
27439;DHT22;14887;51.252;7.470;2022-12-18T15:45:04;-2.00;99.90
27439;DHT22;14887;51.252;7.470;2022-12-18T15:47:30;-2.00;99.90
27439;DHT22;14887;51.252;7.470;2022-12-18T15:49:56;-2.00;1.00
27439;DHT22;14887;51.252;7.470;2022-12-18T15:52:21;-2.00;1.00
27439;DHT22;14887;51.252;7.470;2022-12-18T15:54:51;-2.00;1.00
27439;DHT22;14887;51.252;7.470;2022-12-18T15:57:35;-2.10;1.00
27439;DHT22;14887;51.252;7.470;2022-12-18T16:00:00;-2.10;99.90
27439;DHT22;14887;51.252;7.470;2022-12-18T16:02:26;-2.00;44.80
27439;DHT22;14887;51.252;7.470;2022-12-18T16:04:53;-2.00;99.90
27439;DHT22;14887;51.252;7.470;2022-12-18T16:07:20;-2.10;1.00
27439;DHT22;14887;51.252;7.470;2022-12-18T16:09:45;-2.10;1.00
27439;DHT22;14887;51.252;7.470;2022-12-18T16:12:20;-2.10;20.40
27439;DHT22;14887;51.252;7.470;2022-12-18T16:14:46;-2.20;1.00
27439;DHT22;14887;51.252;7.470;2022-12-18T16:17:12;-2.20;74.70
27439;DHT22;14887;51.252;7.470;2022-12-18T16:19:38;-2.20;1.00
27439;DHT22;14887;51.252;7.470;2022-12-18T16:22:03;-2.20;99.90
27439;DHT22;14887;51.252;7.470;2022-12-18T16:24:32;-2.20;99.90
27439;DHT22;14887;51.252;7.470;2022-12-18T16:27:00;-2.30;1.00
27439;DHT22;14887;51.252;7.470;2022-12-18T16:29:27;-2.20;1.00
27439;DHT22;14887;51.252;7.470;2022-12-18T16:31:57;-2.20;1.00
27439;DHT22;14887;51.252;7.470;2022-12-18T16:35:04;-2.20;1.00
27439;DHT22;14887;51.252;7.470;2022-12-18T16:37:30;-2.20;99.90
27439;DHT22;14887;51.252;7.470;2022-12-18T16:39:55;-2.30;99.90
27439;DHT22;14887;51.252;7.470;2022-12-18T16:42:21;-2.20;99.90
27439;DHT22;14887;51.252;7.470;2022-12-18T16:44:48;-2.30;99.90
27439;DHT22;14887;51.252;7.470;2022-12-18T16:47:14;-2.20;1.00
27439;DHT22;14887;51.252;7.470;2022-12-18T16:49:40;-2.20;1.00
27439;DHT22;14887;51.252;7.470;2022-12-18T16:52:06;-2.20;1.00
27439;DHT22;14887;51.252;7.470;2022-12-18T16:54:32;-2.20;1.00
27439;DHT22;14887;51.252;7.470;2022-12-18T16:56:59;-2.20;1.00
27439;DHT22;14887;51.252;7.470;2022-12-18T16:59:25;-2.20;1.00
27439;DHT22;14887;51.252;7.470;2022-12-18T17:01:51;-2.20;1.00
27439;DHT22;14887;51.252;7.470;2022-12-18T17:04:17;-2.20;1.00
27439;DHT22;14887;51.252;7.470;2022-12-18T17:06:44;-2.20;1.00
27439;DHT22;14887;51.252;7.470;2022-12-18T17:09:13;-2.20;1.00
27439;DHT22;14887;51.252;7.470;2022-12-18T17:11:39;-2.10;4.70
27439;DHT22;14887;51.252;7.470;2022-12-18T17:14:13;-2.10;9.30
27439;DHT22;14887;51.252;7.470;2022-12-18T17:16:39;-2.10;1.00